createdAt,value
2018-02-04T11:04:59.204Z,28.3
2018-02-04T11:05:59.047Z,30
2018-02-04T11:06:59.073Z,26.3
2018-02-04T11:07:58.996Z,25.2
2018-02-04T11:08:59.205Z,26.1
2018-02-04T11:09:58.811Z,28.8
2018-02-04T11:10:58.932Z,27.6
2018-02-04T11:11:59.200Z,24.4
2018-02-04T11:12:58.285Z,23.5
2018-02-04T11:13:58.417Z,25.3
2018-02-04T11:14:58.254Z,28.3
2018-02-04T11:15:58.359Z,27.9
2018-02-04T11:16:58.353Z,24.9
2018-02-04T11:17:58.087Z,24.3
2018-02-04T11:18:57.980Z,26.4
2018-02-04T11:19:57.916Z,28.6
2018-02-04T11:20:57.794Z,25.6
2018-02-04T11:21:57.616Z,23.4
2018-02-04T11:22:57.867Z,22.9
2018-02-04T11:23:57.733Z,25.3
2018-02-04T11:24:57.627Z,28.8
2018-02-04T11:25:57.513Z,26.2
2018-02-04T11:26:57.413Z,23.9
2018-02-04T11:27:57.068Z,23.6
2018-02-04T11:28:57.440Z,26.6
2018-02-04T11:29:57.125Z,29.5
2018-02-04T11:30:57.401Z,26.2
2018-02-04T11:31:57.123Z,23.9
2018-02-04T11:32:56.790Z,23.7
2018-02-04T11:33:57.097Z,23.6
2018-02-04T11:34:57.320Z,23.7
2018-02-04T11:35:57.583Z,23.9
2018-02-04T11:36:56.855Z,26.6
2018-02-04T11:37:56.732Z,30.6
2018-02-04T11:38:56.601Z,28.4
2018-02-04T11:39:56.488Z,24.3
2018-02-04T11:40:56.678Z,23.7
2018-02-04T11:41:56.083Z,26.4
2018-02-04T11:42:56.067Z,28.3
2018-02-04T11:43:56.006Z,24.9
2018-02-04T11:44:56.264Z,23.2
2018-02-04T11:45:55.678Z,22.9
2018-02-04T11:46:55.698Z,25.7
2018-02-04T11:47:55.977Z,28.8
2018-02-04T11:48:55.574Z,25.3
2018-02-04T11:49:55.419Z,23.8
2018-02-04T11:50:55.218Z,23.9
2018-02-04T11:51:55.642Z,26.7
2018-02-04T11:52:55.481Z,29
2018-02-04T11:53:55.277Z,25.2
2018-02-04T11:54:55.349Z,23.9
2018-02-04T11:55:55.373Z,24.7
2018-02-04T11:56:55.621Z,27.3
2018-02-04T11:57:55.402Z,28.8
2018-02-04T11:58:54.840Z,25
2018-02-04T11:59:54.727Z,23.9
2018-02-04T12:00:54.863Z,25.4
2018-02-04T12:01:54.623Z,28.1
2018-02-04T12:02:55.198Z,28.4
2018-02-04T12:03:54.386Z,24.8
2018-02-04T12:04:54.139Z,23.9
2018-02-04T12:05:54.491Z,25.8
2018-02-04T12:06:54.047Z,28.8
2018-02-04T12:07:54.683Z,27.8
2018-02-04T12:08:54.213Z,24.6
2018-02-04T12:09:54.072Z,23.9
2018-02-04T12:10:54.284Z,26.3
2018-02-04T12:11:54.313Z,29.4
2018-02-04T12:12:53.985Z,28.3
2018-02-04T12:13:54.633Z,25.2
2018-02-04T12:14:53.856Z,24.6
2018-02-04T12:15:53.553Z,26.8
2018-02-04T12:16:53.551Z,29.7
2018-02-04T12:17:53.781Z,29.3
2018-02-04T12:18:53.761Z,27.4
2018-02-04T12:19:53.543Z,27
2018-02-04T12:20:53.163Z,27.6
2018-02-04T12:21:53.033Z,28.6
2018-02-04T12:22:53.334Z,25.4
2018-02-04T12:23:53.258Z,22.9
2018-02-04T12:24:52.839Z,22.3
2018-02-04T12:25:52.777Z,24.4
2018-02-04T12:26:53.171Z,27.6
2018-02-04T12:27:52.881Z,24.4
2018-02-04T12:28:52.335Z,22.2
2018-02-04T12:29:53.004Z,21.8
2018-02-04T12:30:52.460Z,25.2
2018-02-04T12:31:52.639Z,28.8
2018-02-04T12:32:52.536Z,31.3
2018-02-04T12:33:52.122Z,33.5
2018-02-04T12:34:52.382Z,35.9
2018-02-04T12:35:52.329Z,37.8
2018-02-04T12:36:52.434Z,37.7
2018-02-04T12:37:52.125Z,33.4
2018-02-04T12:38:52.835Z,31.8
2018-02-04T12:39:52.077Z,31
2018-02-04T12:40:51.975Z,31.8
2018-02-04T12:41:52.093Z,29.8
2018-02-04T12:42:51.871Z,25.8
2018-02-04T12:43:51.807Z,24.8
2018-02-04T12:44:51.804Z,26.4
2018-02-04T12:45:51.785Z,29.5
2018-02-04T12:46:51.869Z,27.4
2018-02-04T12:47:51.359Z,24.6
2018-02-04T12:48:51.882Z,23.9
2018-02-04T12:49:51.428Z,26.1
2018-02-04T12:50:50.831Z,28.4
2018-02-04T12:51:51.304Z,25.6
2018-02-04T12:52:51.572Z,23.3
2018-02-04T12:53:51.022Z,22.8
2018-02-04T12:54:50.939Z,25.8
2018-02-04T12:55:50.812Z,29
2018-02-04T12:56:50.879Z,26.3
2018-02-04T12:57:50.664Z,24.3
2018-02-04T12:58:50.572Z,23.8
2018-02-04T12:59:50.281Z,26.5
2018-02-04T13:00:50.622Z,29.6
2018-02-04T13:01:50.615Z,32
2018-02-04T13:02:50.522Z,33.7
2018-02-04T13:03:50.252Z,34.1
2018-02-04T13:04:50.033Z,29.9
2018-02-04T13:05:50.414Z,28.3
2018-02-04T13:06:50.022Z,28
2018-02-04T13:07:49.827Z,29.9
2018-02-04T13:08:50.239Z,30.8
2018-02-04T13:09:49.362Z,26.9
2018-02-04T13:10:49.649Z,25.4
2018-02-04T13:11:49.584Z,26.3
2018-02-04T13:12:49.874Z,28.6
2018-02-04T13:13:48.978Z,29
2018-02-04T13:14:49.767Z,25.5
2018-02-04T13:15:49.488Z,24.4
2018-02-04T13:16:49.475Z,25.9
2018-02-04T13:17:49.552Z,28.1
2018-02-04T13:18:48.637Z,27.6
2018-02-04T13:19:49.179Z,24.1
2018-02-04T13:20:49.662Z,23.4
2018-02-04T13:21:49.067Z,25.5
2018-02-04T13:22:48.977Z,28.5
2018-02-04T13:23:48.764Z,27.5
2018-02-04T13:24:48.452Z,24.1
2018-02-04T13:25:48.644Z,23.4
2018-02-04T13:26:48.264Z,26.1
2018-02-04T13:27:48.202Z,29.4
2018-02-04T13:28:48.858Z,26.9
2018-02-04T13:29:48.364Z,24
2018-02-04T13:30:48.758Z,23.6
2018-02-04T13:31:47.888Z,26.4
2018-02-04T13:32:47.806Z,29.5
2018-02-04T13:33:48.193Z,26.1
2018-02-04T13:34:48.093Z,23.9
2018-02-04T13:35:47.443Z,23.8
2018-02-04T13:36:47.586Z,27
2018-02-04T13:37:47.295Z,29.6
2018-02-04T13:38:47.787Z,25.6
2018-02-04T13:39:47.101Z,23.6
2018-02-04T13:40:47.448Z,23.9
2018-02-04T13:41:47.145Z,27.1
2018-02-04T13:42:47.203Z,30.9
2018-02-04T13:43:47.261Z,33.7
2018-02-04T13:44:47.616Z,35.5
2018-02-04T13:45:46.903Z,35.1
2018-02-04T13:46:46.888Z,31.1
2018-02-04T13:47:46.690Z,29.7
2018-02-04T13:48:46.760Z,29.4
2018-02-04T13:49:46.813Z,30.8
2018-02-04T13:50:47.104Z,28.9
2018-02-04T13:51:46.610Z,25.4
2018-02-04T13:52:46.573Z,24.6
2018-02-04T13:53:46.372Z,26.1
2018-02-04T13:54:46.347Z,28.9
2018-02-04T13:55:46.298Z,26.8
2018-02-04T13:56:46.113Z,24.1
2018-02-04T13:57:46.063Z,23.5
2018-02-04T13:58:45.854Z,25.9
2018-02-04T13:59:45.925Z,29.3
2018-02-04T14:00:45.850Z,27.3
2018-02-04T14:01:45.571Z,24.9
2018-02-04T14:02:45.447Z,24.3
2018-02-04T14:03:45.456Z,26.3
2018-02-04T14:04:45.218Z,29.4
2018-02-04T14:05:45.462Z,26.5
2018-02-04T14:06:45.143Z,24.3
2018-02-04T14:07:45.579Z,23.8
2018-02-04T14:08:44.886Z,26.9
2018-02-04T14:09:45.105Z,29.8
2018-02-04T14:10:45.046Z,26.3
2018-02-04T14:11:45.363Z,24.7
2018-02-04T14:12:44.905Z,24.6
2018-02-04T14:13:44.568Z,27
2018-02-04T14:14:44.642Z,29.6
2018-02-04T14:15:44.833Z,25.4
2018-02-04T14:16:44.852Z,23.8
2018-02-04T14:17:44.973Z,23.9
2018-02-04T14:18:44.392Z,27.6
2018-02-04T14:19:44.899Z,30.8
2018-02-04T14:20:44.244Z,32.9
2018-02-04T14:21:44.273Z,32.4
2018-02-04T14:22:44.213Z,28.6
2018-02-04T14:23:43.861Z,27.3
2018-02-04T14:24:44.091Z,27.4
2018-02-04T14:25:44.166Z,29.2
2018-02-04T14:26:43.771Z,27.3
2018-02-04T14:27:43.492Z,24
2018-02-04T14:28:43.591Z,23.1
2018-02-04T14:29:43.646Z,24.9
2018-02-04T14:30:43.575Z,27.8
2018-02-04T14:31:44.043Z,30.9
2018-02-04T14:32:43.563Z,30.8
2018-02-04T14:33:43.763Z,27.5
2018-02-04T14:34:42.996Z,26.4
2018-02-04T14:35:42.834Z,27.3
2018-02-04T14:36:42.809Z,30
2018-02-04T14:37:42.916Z,28.6
2018-02-04T14:38:42.741Z,25.4
2018-02-04T14:39:42.906Z,24.6
2018-02-04T14:40:42.573Z,26.1
2018-02-04T14:41:42.812Z,29.1
2018-02-04T14:42:42.802Z,27.3
2018-02-04T14:43:42.850Z,24.1
2018-02-04T14:44:42.786Z,23.6
2018-02-04T14:45:42.168Z,26.3
2018-02-04T14:46:41.954Z,29.6
2018-02-04T14:47:41.922Z,29.6
2018-02-04T14:48:41.957Z,26
2018-02-04T14:49:41.941Z,25.1
2018-02-04T14:50:42.156Z,26.1
2018-02-04T14:51:41.654Z,29
2018-02-04T14:52:41.478Z,31.9
2018-02-04T14:53:41.723Z,33
2018-02-04T14:54:42.395Z,29
2018-02-04T14:55:41.655Z,27.4
2018-02-04T14:56:41.536Z,27.2
2018-02-04T14:57:41.372Z,29
2018-02-04T14:58:41.002Z,29.9
2018-02-04T14:59:41.087Z,26.1
2018-02-04T15:00:40.877Z,24.6
2018-02-04T15:01:40.826Z,25.3
2018-02-04T15:02:40.781Z,28.4
2018-02-04T15:03:41.224Z,28.9
2018-02-04T15:04:40.736Z,25.1
2018-02-04T15:05:40.453Z,24.3
2018-02-04T15:06:40.377Z,25.6
2018-02-04T15:07:40.518Z,29.2
2018-02-04T15:08:40.662Z,32
2018-02-04T15:09:40.998Z,33.9
2018-02-04T15:10:40.146Z,31.4
2018-02-04T15:11:40.415Z,28.6
2018-02-04T15:12:40.043Z,27.6
2018-02-04T15:13:39.996Z,28.4
2018-02-04T15:14:40.015Z,29.6
2018-02-04T15:15:41.109Z,26
2018-02-04T15:16:40.003Z,23.6
2018-02-04T15:17:39.515Z,23.1
2018-02-04T15:18:39.937Z,25.4
2018-02-04T15:19:39.539Z,28.7
2018-02-04T15:20:40.056Z,30.9
2018-02-04T15:21:39.957Z,27.5
2018-02-04T15:22:39.475Z,25.8
2018-02-04T15:23:39.893Z,25.4
2018-02-04T15:24:39.695Z,27.5
2018-02-04T15:25:39.720Z,27.8
2018-02-04T15:26:39.009Z,23.7
2018-02-04T15:27:39.568Z,22.1
2018-02-04T15:28:38.605Z,22.9
2018-02-04T15:29:39.070Z,25.6
2018-02-04T15:30:38.465Z,29
2018-02-04T15:31:38.484Z,31.3
2018-02-04T15:32:39.277Z,32.8
2018-02-04T15:33:38.660Z,33.7
2018-02-04T15:34:38.308Z,34.4
2018-02-04T15:35:38.720Z,35
2018-02-04T15:36:38.224Z,32.6
2018-02-04T15:37:38.009Z,29.2
2018-02-04T15:38:38.448Z,28.1
2018-02-04T15:39:37.992Z,28.7
2018-02-04T15:40:38.649Z,30.4
2018-02-04T15:41:38.355Z,27.5
2018-02-04T15:42:37.732Z,24.7
2018-02-04T15:43:37.810Z,24
2018-02-04T15:44:37.744Z,26.6
2018-02-04T15:45:37.731Z,29.9
2018-02-04T15:46:37.930Z,27.5
2018-02-04T15:47:37.458Z,25
2018-02-04T15:48:37.565Z,24.3
2018-02-04T15:49:37.510Z,26.4
2018-02-04T15:50:36.859Z,29.1
2018-02-04T15:51:37.176Z,26.1
2018-02-04T15:52:36.953Z,23.9
2018-02-04T15:53:37.396Z,23.4
2018-02-04T15:54:37.230Z,26.1
2018-02-04T15:55:36.647Z,29.4
2018-02-04T15:56:36.960Z,31.3
2018-02-04T15:57:36.779Z,32.6
2018-02-04T15:58:36.573Z,28.8
2018-02-04T15:59:36.599Z,26.5
2018-02-04T16:00:36.404Z,25.8
2018-02-04T16:01:36.154Z,26.8
2018-02-04T16:02:36.713Z,29.1
2018-02-04T16:03:36.294Z,31
2018-02-04T16:04:36.095Z,32.4
2018-02-04T16:05:36.513Z,34.8
2018-02-04T16:06:36.188Z,37.4
2018-02-04T16:07:36.831Z,39.3
2018-02-04T16:08:36.287Z,40.9
2018-02-04T16:09:35.780Z,42.1
2018-02-04T16:10:35.528Z,42.6
2018-02-04T16:11:35.562Z,42.7
2018-02-04T16:12:35.582Z,42.8
2018-02-04T16:13:35.232Z,42.8
2018-02-04T16:14:35.421Z,43
2018-02-04T16:15:34.940Z,39.8
2018-02-04T16:16:35.195Z,36.6
2018-02-04T16:17:34.938Z,35.1
2018-02-04T16:18:35.020Z,33.4
2018-02-04T16:19:35.445Z,32.9
2018-02-04T16:20:34.559Z,27.8
2018-02-04T16:21:34.681Z,25.6
2018-02-04T16:22:34.751Z,24.9
2018-02-04T16:23:34.690Z,27.1
2018-02-04T16:24:34.578Z,29.5
2018-02-04T16:25:34.347Z,25.8
2018-02-04T16:26:34.569Z,24.3
2018-02-04T16:27:34.588Z,24
2018-02-04T16:28:34.211Z,27.4
2018-02-04T16:29:34.230Z,29.1
2018-02-04T16:30:34.039Z,25.2
2018-02-04T16:31:33.815Z,23.8
2018-02-04T16:32:34.060Z,23.8
2018-02-04T16:33:33.960Z,27
2018-02-04T16:34:33.771Z,28.2
2018-02-04T16:35:33.985Z,24.4
2018-02-04T16:36:33.742Z,23.2
2018-02-04T16:37:33.645Z,23.5
2018-02-04T16:38:33.740Z,26.9
2018-02-04T16:39:33.604Z,27.5
2018-02-04T16:40:33.475Z,23.7
2018-02-04T16:41:33.250Z,22.6
2018-02-04T16:42:33.163Z,23.4
2018-02-04T16:43:33.368Z,26.8
2018-02-04T16:44:33.320Z,28.6
2018-02-04T16:45:33.246Z,30.3
2018-02-04T16:46:32.961Z,31.5
2018-02-04T16:47:32.684Z,30.9
2018-02-04T16:48:32.379Z,26.8
2018-02-04T16:49:33.195Z,25.5
2018-02-04T16:50:32.642Z,26.1
2018-02-04T16:51:32.752Z,28.8
2018-02-04T16:52:32.463Z,28.4
2018-02-04T16:53:31.866Z,25.3
2018-02-04T16:54:31.885Z,24.4
2018-02-04T16:55:32.463Z,25.7
2018-02-04T16:56:31.802Z,28.3
2018-02-04T16:57:32.196Z,27.1
2018-02-04T16:58:31.991Z,24.2
2018-02-04T16:59:31.905Z,23.4
2018-02-04T17:00:31.749Z,25.3
2018-02-04T17:01:32.308Z,27.9
2018-02-04T17:02:32.056Z,30.3
2018-02-04T17:03:31.915Z,32.1
2018-02-04T17:04:31.516Z,33.3
2018-02-04T17:05:31.746Z,31.5
2018-02-04T17:06:31.584Z,28.1
2018-02-04T17:07:31.406Z,27
2018-02-04T17:08:30.803Z,27.5
2018-02-04T17:09:30.907Z,29.3
2018-02-04T17:10:31.143Z,26.9
2018-02-04T17:11:31.756Z,23.8
2018-02-04T17:12:31.065Z,23.1
2018-02-04T17:13:30.850Z,25.1
2018-02-04T17:14:30.551Z,28.1
2018-02-04T17:15:30.598Z,26.4
2018-02-04T17:16:30.469Z,23.9
2018-02-04T17:17:30.568Z,23.2
2018-02-04T17:18:30.169Z,25.4
2018-02-04T17:19:30.219Z,28.7
2018-02-04T17:20:30.303Z,30.5
2018-02-04T17:21:30.347Z,27.1
2018-02-04T17:22:29.845Z,25.4
2018-02-04T17:23:29.804Z,25.2
2018-02-04T17:24:30.222Z,27.4
2018-02-04T17:25:29.600Z,28.9
2018-02-04T17:26:29.720Z,24.8
2018-02-04T17:27:30.083Z,23.4
2018-02-04T17:28:29.481Z,23.6
2018-02-04T17:29:29.570Z,27
2018-02-04T17:30:29.613Z,28
2018-02-04T17:31:30.074Z,24.4
2018-02-04T17:32:29.254Z,23.4
2018-02-04T17:33:29.939Z,24.4
2018-02-04T17:34:29.489Z,27.1
2018-02-04T17:35:29.372Z,27.4
2018-02-04T17:36:29.457Z,23.4
2018-02-04T17:37:29.072Z,22.5
2018-02-04T17:38:29.413Z,24.1
2018-02-04T17:39:28.938Z,27.6
2018-02-04T17:40:28.650Z,26.6
2018-02-04T17:41:29.493Z,22.6
2018-02-04T17:42:29.038Z,21.8
2018-02-04T17:43:28.469Z,24.1
2018-02-04T17:44:28.996Z,27.4
2018-02-04T17:45:29.526Z,30.3
2018-02-04T17:46:28.594Z,29.3
2018-02-04T17:47:28.119Z,26
2018-02-04T17:48:28.968Z,24.9
2018-02-04T17:49:28.947Z,25.8
2018-02-04T17:50:28.906Z,28.8
2018-02-04T17:51:28.655Z,27.3
2018-02-04T17:52:28.588Z,24.2
2018-02-04T17:53:28.722Z,23.2
2018-02-04T17:54:28.690Z,24.9
2018-02-04T17:55:28.355Z,27.4
2018-02-04T17:56:28.597Z,25.8
2018-02-04T17:57:28.754Z,21.6
2018-02-04T17:58:28.372Z,20.6
2018-02-04T17:59:27.918Z,24.1
2018-02-04T18:00:27.974Z,27.4
2018-02-04T18:01:27.624Z,30.5
2018-02-04T18:02:28.019Z,32.2
2018-02-04T18:03:27.872Z,33.1
2018-02-04T18:04:27.756Z,33.7
2018-02-04T18:05:27.532Z,33.8
2018-02-04T18:06:28.870Z,29.3
2018-02-04T18:07:27.497Z,27.4
2018-02-04T18:08:27.690Z,26.8
2018-02-04T18:09:27.454Z,28.9
2018-02-04T18:10:27.593Z,30.4
2018-02-04T18:11:26.997Z,26.6
2018-02-04T18:12:27.244Z,24.8
2018-02-04T18:13:27.156Z,24.7
2018-02-04T18:14:27.121Z,26.9
2018-02-04T18:15:27.008Z,28.2
2018-02-04T18:16:26.505Z,24.6
2018-02-04T18:17:26.680Z,22.8
2018-02-04T18:18:27.121Z,23.1
2018-02-04T18:19:26.685Z,25.9
2018-02-04T18:20:26.609Z,27.1
2018-02-04T18:21:26.343Z,23.3
2018-02-04T18:22:26.247Z,21.9
2018-02-04T18:23:26.715Z,23.1
2018-02-04T18:24:26.549Z,26.8
2018-02-04T18:25:26.085Z,29.8
2018-02-04T18:26:26.138Z,27.2
2018-02-04T18:27:26.548Z,23.9
2018-02-04T18:28:25.879Z,23.7
2018-02-04T18:29:26.104Z,25.9
2018-02-04T18:30:25.560Z,28.4
2018-02-04T18:31:25.895Z,26.5
2018-02-04T18:32:25.482Z,23.3
2018-02-04T18:33:25.808Z,22.8
2018-02-04T18:34:25.310Z,24.9
2018-02-04T18:35:25.533Z,27.2
2018-02-04T18:36:25.289Z,24.7
2018-02-04T18:37:25.052Z,22
2018-02-04T18:38:25.613Z,21.4
2018-02-04T18:39:25.578Z,24.4
2018-02-04T18:40:24.986Z,27.7
2018-02-04T18:41:24.994Z,30.1
2018-02-04T18:42:25.010Z,31.7
2018-02-04T18:43:24.912Z,32.4
2018-02-04T18:44:24.535Z,33.2
2018-02-04T18:45:24.913Z,29.6
2018-02-04T18:46:24.306Z,27.1
2018-02-04T18:47:24.395Z,26.4
2018-02-04T18:48:25.042Z,27.6
2018-02-04T18:49:23.993Z,29.3
2018-02-04T18:50:24.255Z,25.4
2018-02-04T18:51:24.196Z,23.3
2018-02-04T18:52:24.030Z,22.9
2018-02-04T18:53:23.726Z,25.4
2018-02-04T18:54:24.272Z,28.8
2018-02-04T18:55:24.451Z,31.3
2018-02-04T18:56:23.900Z,33
2018-02-04T18:57:24.469Z,34
2018-02-04T18:58:23.821Z,33.8
2018-02-04T18:59:24.162Z,29.4
2018-02-04T19:00:23.396Z,28
2018-02-04T19:01:23.311Z,27.6
2018-02-04T19:02:23.320Z,29.4
2018-02-04T19:03:23.329Z,29.1
2018-02-04T19:04:23.090Z,24.9
2018-02-04T19:05:23.269Z,23.8
2018-02-04T19:06:22.956Z,24.7
2018-02-04T19:07:23.104Z,27.3
2018-02-04T19:08:22.830Z,27.9
2018-02-04T19:09:22.925Z,24.4
2018-02-04T19:10:22.826Z,23.3
2018-02-04T19:11:22.822Z,24.4
2018-02-04T19:12:22.526Z,26.9
2018-02-04T19:13:22.820Z,29.8
2018-02-04T19:14:22.177Z,31.7
2018-02-04T19:15:22.522Z,30.6
2018-02-04T19:16:22.437Z,26.8
2018-02-04T19:17:21.975Z,25.7
2018-02-04T19:18:22.445Z,26.1
2018-02-04T19:19:21.778Z,27.9
2018-02-04T19:20:21.943Z,29.3
2018-02-04T19:21:21.459Z,31.2
2018-02-04T19:22:21.699Z,32.5
2018-02-04T19:23:22.111Z,33.3
2018-02-04T19:24:21.828Z,31.1
2018-02-04T19:25:21.596Z,27.8
2018-02-04T19:26:21.397Z,26.8
2018-02-04T19:27:21.190Z,27.7
2018-02-04T19:28:21.249Z,29.6
2018-02-04T19:29:21.849Z,27.9
2018-02-04T19:30:21.187Z,25.1
2018-02-04T19:31:21.205Z,24.3
2018-02-04T19:32:21.318Z,25.9
2018-02-04T19:33:21.218Z,28.1
2018-02-04T19:34:20.563Z,26.1
2018-02-04T19:35:20.720Z,23.4
2018-02-04T19:36:20.883Z,22.6
2018-02-04T19:37:20.814Z,24.6
2018-02-04T19:38:21.019Z,27.6
2018-02-04T19:39:20.572Z,30.1
2018-02-04T19:40:20.518Z,31.6
2018-02-04T19:41:20.452Z,32.4
2018-02-04T19:42:20.213Z,33.1
2018-02-04T19:43:20.769Z,33.8
2018-02-04T19:44:20.462Z,34.5
2018-02-04T19:45:19.782Z,31.5
2018-02-04T19:46:19.722Z,28.4
2018-02-04T19:47:19.816Z,27.5
2018-02-04T19:48:19.963Z,28.4
2018-02-04T19:49:19.409Z,30.1
2018-02-04T19:50:19.249Z,26.8
2018-02-04T19:51:19.873Z,24.3
2018-02-04T19:52:19.608Z,23.7
2018-02-04T19:53:19.383Z,26.4
2018-02-04T19:54:19.376Z,29.6
2018-02-04T19:55:19.073Z,31.6
2018-02-04T19:56:19.132Z,32.8
2018-02-04T19:57:19.429Z,33.6
2018-02-04T19:58:18.777Z,34.4
2018-02-04T19:59:19.150Z,35.1
2018-02-04T20:00:19.420Z,34.9
2018-02-04T20:01:18.967Z,30.4
2018-02-04T20:02:19.267Z,28.7
2018-02-04T20:03:18.622Z,28.2
2018-02-04T20:04:18.310Z,30.1
2018-02-04T20:05:18.110Z,29.9
2018-02-04T20:06:18.024Z,25.4
2018-02-04T20:07:18.094Z,24.2
2018-02-04T20:08:17.733Z,24.9
2018-02-04T20:09:18.800Z,28.3
2018-02-04T20:10:18.077Z,28.9
2018-02-04T20:11:17.572Z,25.8
2018-02-04T20:12:18.887Z,24.8
2018-02-04T20:13:18.224Z,25.6
2018-02-04T20:14:18.035Z,28.1
2018-02-04T20:15:17.710Z,30.3
2018-02-04T20:16:17.665Z,31.6
2018-02-04T20:17:17.751Z,32.6
2018-02-04T20:18:17.494Z,33.4
2018-02-04T20:19:17.516Z,34.1
2018-02-04T20:20:17.445Z,34.8
2018-02-04T20:21:16.883Z,31.6
2018-02-04T20:22:16.910Z,28.8
2018-02-04T20:23:16.865Z,27.9
2018-02-04T20:24:16.943Z,28.8
2018-02-04T20:25:16.650Z,30.4
2018-02-04T20:26:17.175Z,26.8
2018-02-04T20:27:16.742Z,24.4
2018-02-04T20:28:17.184Z,23.9
2018-02-04T20:29:17.429Z,26.8
2018-02-04T20:30:16.376Z,29.5
2018-02-04T20:31:16.206Z,26.4
2018-02-04T20:32:16.297Z,24.6
2018-02-04T20:33:16.386Z,24.1
2018-02-04T20:34:16.097Z,26.3
2018-02-04T20:35:16.125Z,28.9
2018-02-04T20:36:16.029Z,30.7
2018-02-04T20:37:16.446Z,31.5
2018-02-04T20:38:16.336Z,32
2018-02-04T20:39:15.826Z,32.6
2018-02-04T20:40:15.609Z,33.4
2018-02-04T20:41:16.003Z,34.4
2018-02-04T20:42:15.983Z,35.1
2018-02-04T20:43:15.865Z,35.7
2018-02-04T20:44:15.612Z,36
2018-02-04T20:45:15.090Z,36.2
2018-02-04T20:46:15.333Z,36.3
2018-02-04T20:47:15.257Z,36.4
2018-02-04T20:48:14.945Z,35.8
2018-02-04T20:49:14.953Z,31
2018-02-04T20:50:15.523Z,29.4
2018-02-04T20:51:15.558Z,28.8
2018-02-04T20:52:15.253Z,30.3
2018-02-04T20:53:14.724Z,30
2018-02-04T20:54:14.371Z,25.4
2018-02-04T20:55:14.837Z,24.3
2018-02-04T20:56:14.695Z,25
2018-02-04T20:57:14.306Z,28.4
2018-02-04T20:58:14.215Z,28.1
2018-02-04T20:59:14.428Z,24.6
2018-02-04T21:00:13.915Z,23.8
2018-02-04T21:01:14.355Z,24.9
2018-02-04T21:02:13.924Z,27.6
2018-02-04T21:03:13.916Z,29.4
2018-02-04T21:04:13.969Z,30.8
2018-02-04T21:05:14.185Z,31.6
2018-02-04T21:06:13.515Z,32.1
2018-02-04T21:07:13.827Z,32.6
2018-02-04T21:08:13.504Z,33.4
2018-02-04T21:09:13.350Z,34.6
2018-02-04T21:10:13.211Z,35.4
2018-02-04T21:11:13.498Z,35.9
2018-02-04T21:12:13.205Z,36.4
2018-02-04T21:13:13.806Z,36.7
2018-02-04T21:14:12.749Z,36.9
2018-02-04T21:15:12.987Z,37
2018-02-04T21:16:12.993Z,37.3
2018-02-04T21:17:12.984Z,37.8
2018-02-04T21:18:12.517Z,37.7
2018-02-04T21:19:12.964Z,32.5
2018-02-04T21:20:12.561Z,30.3
2018-02-04T21:21:12.495Z,29.5
2018-02-04T21:22:12.575Z,30.9
2018-02-04T21:23:12.614Z,30.9
2018-02-04T21:24:12.503Z,26
2018-02-04T21:25:12.126Z,24.8
2018-02-04T21:26:12.220Z,24.9
2018-02-04T21:27:11.872Z,28.4
2018-02-04T21:28:11.963Z,28.7
2018-02-04T21:29:11.788Z,24.8
2018-02-04T21:30:12.422Z,23.8
2018-02-04T21:31:11.651Z,24.6
2018-02-04T21:32:11.618Z,27.6
2018-02-04T21:33:11.484Z,29.7
2018-02-04T21:34:11.419Z,31.3
2018-02-04T21:35:11.356Z,32.4
2018-02-04T21:36:11.681Z,33.3
2018-02-04T21:37:11.378Z,34.1
2018-02-04T21:38:11.657Z,34.8
2018-02-04T21:39:11.596Z,35.3
2018-02-04T21:40:10.934Z,35.6
2018-02-04T21:41:11.145Z,35.8
2018-02-04T21:42:10.841Z,36
2018-02-04T21:43:10.755Z,36.1
2018-02-04T21:44:11.758Z,36.2
2018-02-04T21:45:10.456Z,36.3
2018-02-04T21:46:10.572Z,36.4
2018-02-04T21:47:10.697Z,35.7
2018-02-04T21:48:10.792Z,30.8
2018-02-04T21:49:10.894Z,29.3
2018-02-04T21:50:10.214Z,29
2018-02-04T21:51:10.252Z,30.9
2018-02-04T21:52:09.939Z,29.5
2018-02-04T21:53:10.409Z,25.3
2018-02-04T21:54:10.222Z,24.4
2018-02-04T21:55:09.693Z,25.8
2018-02-04T21:56:09.931Z,28.8
2018-02-04T21:57:09.724Z,30.5
2018-02-04T21:58:09.523Z,31.9
2018-02-04T21:59:09.497Z,33
2018-02-04T22:00:09.830Z,33.8
2018-02-04T22:01:09.253Z,34.5
2018-02-04T22:02:09.836Z,35.1
2018-02-04T22:03:09.448Z,35.6
2018-02-04T22:04:08.969Z,35.9
2018-02-04T22:05:10.030Z,36.1
2018-02-04T22:06:08.778Z,36.3
2018-02-04T22:07:08.714Z,36.4
2018-02-04T22:08:08.702Z,33.9
2018-02-04T22:09:08.856Z,30.3
2018-02-04T22:10:09.085Z,29.1
2018-02-04T22:11:08.943Z,29.1
2018-02-04T22:12:08.654Z,30.6
2018-02-04T22:13:08.744Z,28.1
2018-02-04T22:14:08.312Z,24.9
2018-02-04T22:15:08.420Z,24.2
2018-02-04T22:16:09.105Z,26.2
2018-02-04T22:17:08.177Z,28.9
2018-02-04T22:18:08.309Z,30.6
2018-02-04T22:19:08.140Z,32
2018-02-04T22:20:07.922Z,33
2018-02-04T22:21:07.986Z,33.8
2018-02-04T22:22:07.977Z,34.5
2018-02-04T22:23:07.826Z,35.1
2018-02-04T22:24:08.111Z,35.5
2018-02-04T22:25:07.714Z,35.8
2018-02-04T22:26:08.010Z,36
2018-02-04T22:27:07.871Z,36.1
2018-02-04T22:28:07.153Z,36.3
2018-02-04T22:29:07.529Z,36.3
2018-02-04T22:30:07.252Z,36.4
2018-02-04T22:31:07.108Z,36.7
2018-02-04T22:32:06.783Z,37.2
2018-02-04T22:33:06.954Z,33.5
2018-02-04T22:34:06.947Z,30.3
2018-02-04T22:35:06.809Z,29.3
2018-02-04T22:36:07.092Z,30.3
2018-02-04T22:37:06.465Z,31.6
2018-02-04T22:38:06.794Z,27.3
2018-02-04T22:39:07.334Z,25.1
2018-02-04T22:40:06.385Z,24.7
2018-02-04T22:41:06.308Z,27.6
2018-02-04T22:42:06.425Z,29.8
2018-02-04T22:43:06.090Z,26.9
2018-02-04T22:44:06.697Z,24.6
2018-02-04T22:45:06.614Z,24.1
2018-02-04T22:46:06.426Z,26.6
2018-02-04T22:47:05.974Z,28.8
2018-02-04T22:48:05.951Z,30.2
2018-02-04T22:49:06.214Z,31.3
2018-02-04T22:50:05.703Z,31.8
2018-02-04T22:51:06.039Z,32.4
2018-02-04T22:52:05.639Z,32.8
2018-02-04T22:53:05.632Z,33.6
2018-02-04T22:54:06.292Z,34.4
2018-02-04T22:55:05.705Z,35
2018-02-04T22:56:05.295Z,35.4
2018-02-04T22:57:05.213Z,35.6
2018-02-04T22:58:05.151Z,35.8
2018-02-04T22:59:04.953Z,35.9
2018-02-04T23:00:05.107Z,36.1
2018-02-04T23:01:05.258Z,36.5
2018-02-04T23:02:05.194Z,37
2018-02-04T23:03:04.870Z,37.4
2018-02-04T23:04:05.023Z,34.6
2018-02-04T23:05:05.073Z,30.5
2018-02-04T23:06:04.654Z,29.3
2018-02-04T23:07:04.658Z,29.6
2018-02-04T23:08:04.778Z,31.3
2018-02-04T23:09:05.183Z,27.8
2018-02-04T23:10:04.331Z,25
2018-02-04T23:11:05.018Z,24.4
2018-02-04T23:12:04.687Z,27
2018-02-04T23:13:04.501Z,29.4
2018-02-04T23:14:04.318Z,31
2018-02-04T23:15:04.270Z,32.4
2018-02-04T23:16:04.320Z,33.3
2018-02-04T23:17:04.184Z,34
2018-02-04T23:18:03.789Z,34.6
2018-02-04T23:19:03.670Z,35.2
2018-02-04T23:20:04.038Z,35.6
2018-02-04T23:21:03.824Z,35.9
2018-02-04T23:22:03.900Z,36
2018-02-04T23:23:03.178Z,36.1
2018-02-04T23:24:03.370Z,36.3
2018-02-04T23:25:03.262Z,36.3
2018-02-04T23:26:03.318Z,36.4
2018-02-04T23:27:03.121Z,36.8
2018-02-04T23:28:04.199Z,33.3
2018-02-04T23:29:03.238Z,30
2018-02-04T23:30:02.855Z,28.9
2018-02-04T23:31:03.170Z,29.4
2018-02-04T23:32:03.064Z,30.8
2018-02-04T23:33:02.836Z,26.9
2018-02-04T23:34:02.681Z,24.6
2018-02-04T23:35:03.075Z,24.2
2018-02-04T23:36:02.744Z,27.1
2018-02-04T23:37:03.273Z,29.3
2018-02-04T23:38:03.278Z,30.9
2018-02-04T23:39:02.464Z,32.3
2018-02-04T23:40:02.590Z,33.3
2018-02-04T23:41:02.546Z,34
2018-02-04T23:42:02.527Z,34.6
2018-02-04T23:43:03.057Z,35.2
2018-02-04T23:44:02.130Z,35.6
2018-02-04T23:45:02.504Z,35.9
2018-02-04T23:46:02.326Z,36
2018-02-04T23:47:02.326Z,36.2
2018-02-04T23:48:02.450Z,36.2
2018-02-04T23:49:01.358Z,31.7
2018-02-04T23:50:01.659Z,29.5
2018-02-04T23:51:01.695Z,28.7
2018-02-04T23:52:01.438Z,29.7
2018-02-04T23:53:01.488Z,30.5
2018-02-04T23:54:02.277Z,25.9
2018-02-04T23:55:01.803Z,24.4
2018-02-04T23:56:01.187Z,24.2
2018-02-04T23:57:01.148Z,27.6
2018-02-04T23:58:01.331Z,29.5
2018-02-04T23:59:01.503Z,31.1
